createdAt,value
2022-09-18T00:04:30.953Z,4.65
2022-09-18T00:09:33.806Z,5.95
2022-09-18T00:14:38.133Z,2.45
2022-09-18T00:19:40.889Z,6.25
2022-09-18T00:24:43.689Z,3.45
2022-09-18T00:29:47.753Z,2.90
2022-09-18T00:34:50.436Z,3.35
2022-09-18T00:39:53.423Z,3.72
2022-09-18T00:44:57.545Z,2.80
2022-09-18T00:50:05.163Z,3.72
2022-09-18T00:55:10.095Z,3.50
2022-09-18T01:00:15.407Z,4.97
2022-09-18T01:05:23.040Z,3.38
2022-09-18T01:10:36.095Z,3.97
2022-09-18T01:15:44.559Z,3.20
2022-09-18T01:21:03.889Z,1.30
2022-09-18T01:26:19.512Z,2.63
2022-09-18T01:31:29.649Z,2.33
2022-09-18T01:36:36.436Z,2.53
2022-09-18T01:41:41.575Z,2.92
2022-09-18T01:46:46.829Z,4.60
2022-09-18T01:51:55.148Z,1.45
2022-09-18T01:57:00.391Z,4.72
2022-09-18T02:02:07.416Z,1.63
2022-09-18T02:07:14.601Z,2.97
2022-09-18T02:12:21.038Z,4.38
2022-09-18T02:17:32.336Z,2.63
2022-09-18T02:22:36.027Z,2.05
2022-09-18T02:27:39.502Z,2.45
2022-09-18T02:32:43.682Z,1.95
2022-09-18T02:37:55.971Z,5.43
2022-09-18T02:43:11.643Z,2.15
2022-09-18T02:48:30.448Z,1.67
2022-09-18T02:53:36.410Z,1.40
2022-09-18T02:58:43.778Z,2.13
2022-09-18T03:03:48.623Z,1.00
2022-09-18T03:08:53.561Z,3.85
2022-09-18T03:13:56.407Z,2.13
2022-09-18T03:19:01.698Z,1.88
2022-09-18T03:24:04.454Z,1.98
2022-09-18T03:29:10.002Z,1.88
2022-09-18T03:34:16.126Z,2.50
2022-09-18T03:39:21.408Z,1.40
2022-09-18T03:44:26.659Z,2.88
2022-09-18T03:49:33.714Z,1.65
2022-09-18T03:54:36.457Z,1.85
2022-09-18T03:59:49.651Z,2.17
2022-09-18T04:05:19.169Z,1.55
2022-09-18T04:10:48.452Z,1.25
2022-09-18T04:15:51.203Z,1.17
2022-09-18T04:20:55.333Z,1.13
2022-09-18T04:25:58.241Z,1.92
2022-09-18T04:31:06.762Z,1.63
2022-09-18T04:36:11.097Z,1.60
2022-09-18T04:41:14.170Z,2.35
2022-09-18T04:46:18.535Z,4.53
2022-09-18T04:51:22.744Z,2.95
2022-09-18T04:56:25.641Z,2.45
2022-09-18T05:01:29.152Z,2.17
2022-09-18T05:06:36.152Z,2.63
2022-09-18T05:11:40.087Z,2.55
2022-09-18T05:16:42.783Z,1.33
2022-09-18T05:22:08.431Z,1.58
2022-09-18T05:27:15.762Z,1.58
2022-09-18T05:32:20.243Z,1.55
2022-09-18T05:37:24.712Z,1.67
2022-09-18T05:42:30.497Z,1.15
2022-09-18T05:47:36.137Z,2.30
2022-09-18T05:52:41.439Z,2.22
2022-09-18T05:57:44.732Z,1.20
2022-09-18T06:02:53.942Z,4.55
2022-09-18T06:08:00.217Z,2.20
2022-09-18T06:13:04.094Z,1.70
2022-09-18T06:18:08.750Z,1.45
2022-09-18T06:23:13.081Z,1.73
2022-09-18T06:28:28.131Z,2.83
2022-09-18T06:33:31.978Z,2.67
2022-09-18T06:38:36.138Z,1.20
2022-09-18T06:43:38.974Z,4.20
2022-09-18T06:49:00.173Z,1.23
2022-09-18T06:54:04.446Z,1.55
2022-09-18T06:59:07.815Z,2.10
2022-09-18T07:04:12.408Z,2.30
2022-09-18T07:09:20.523Z,1.75
2022-09-18T07:14:29.079Z,2.13
2022-09-18T07:19:38.951Z,1.75
2022-09-18T07:24:44.594Z,3.33
2022-09-18T07:29:47.655Z,1.80
2022-09-18T07:34:51.791Z,4.70
2022-09-18T07:40:02.305Z,3.22
2022-09-18T07:45:23.946Z,3.65
2022-09-18T07:50:26.958Z,5.38
2022-09-18T07:55:31.216Z,5.25
2022-09-18T08:00:37.064Z,4.95
2022-09-18T08:05:40.562Z,2.13
2022-09-18T08:10:45.832Z,3.10
2022-09-18T08:16:07.152Z,2.80
2022-09-18T08:21:30.628Z,3.47
2022-09-18T08:26:38.603Z,1.42
2022-09-18T08:31:42.316Z,1.85
2022-09-18T08:36:46.623Z,3.00
2022-09-18T08:42:05.730Z,2.35
2022-09-18T08:47:14.884Z,3.47
2022-09-18T08:52:19.241Z,3.25
2022-09-18T08:57:29.953Z,3.78
2022-09-18T09:02:46.809Z,7.10
2022-09-18T09:08:12.620Z,2.40
2022-09-18T09:13:55.078Z,2.50
2022-09-18T09:19:01.792Z,2.58
2022-09-18T09:24:20.978Z,3.22
2022-09-18T09:29:44.431Z,2.72
2022-09-18T09:35:18.192Z,1.75
2022-09-18T09:40:40.111Z,2.10
2022-09-18T09:45:46.265Z,1.50
2022-09-18T09:50:55.846Z,2.70
2022-09-18T09:56:03.806Z,1.60
2022-09-18T10:01:12.016Z,1.77
2022-09-18T10:06:28.967Z,2.28
2022-09-18T10:11:33.153Z,2.05
2022-09-18T10:16:40.338Z,3.60
2022-09-18T10:21:47.687Z,1.23
2022-09-18T10:26:52.977Z,3.85
2022-09-18T10:31:57.434Z,1.40
2022-09-18T10:37:05.161Z,1.90
2022-09-18T10:42:08.562Z,1.52
2022-09-18T10:47:21.414Z,1.67
2022-09-18T10:52:31.800Z,1.27
2022-09-18T10:57:40.426Z,3.13
2022-09-18T11:02:48.413Z,1.65
2022-09-18T11:07:54.259Z,1.90
2022-09-18T11:12:59.018Z,2.17
2022-09-18T11:18:15.795Z,1.58
2022-09-18T11:23:27.729Z,3.40
2022-09-18T11:28:33.603Z,1.50
2022-09-18T11:33:45.266Z,1.50
2022-09-18T11:38:50.847Z,2.00
2022-09-18T11:44:01.637Z,4.00
2022-09-18T11:49:07.795Z,4.10
2022-09-18T11:54:25.559Z,3.53
2022-09-18T11:59:30.845Z,2.08
2022-09-18T12:04:41.890Z,4.18
2022-09-18T12:09:49.536Z,2.67
2022-09-18T12:15:03.183Z,1.55
2022-09-18T12:20:11.476Z,1.65
2022-09-18T12:25:17.788Z,1.70
2022-09-18T12:30:44.923Z,1.10
2022-09-18T12:35:58.419Z,1.65
2022-09-18T12:41:17.448Z,2.58
2022-09-18T12:46:29.069Z,1.25
2022-09-18T12:51:38.619Z,4.03
2022-09-18T12:56:52.534Z,1.65
2022-09-18T13:01:58.674Z,2.88
2022-09-18T13:07:04.836Z,3.72
2022-09-18T13:12:14.257Z,2.45
2022-09-18T13:17:20.023Z,1.92
2022-09-18T13:22:24.010Z,1.23
2022-09-18T13:27:28.666Z,1.45
2022-09-18T13:32:41.419Z,1.30
2022-09-18T13:37:44.510Z,1.88
2022-09-18T13:42:48.759Z,3.30
2022-09-18T13:48:02.284Z,5.60
2022-09-18T13:53:06.065Z,10.60
2022-09-18T13:58:36.899Z,8.93
2022-09-18T14:03:40.873Z,9.77
2022-09-18T14:08:43.649Z,8.48
2022-09-18T14:13:54.135Z,10.13
2022-09-18T14:19:03.167Z,6.18
2022-09-18T14:24:25.371Z,7.28
2022-09-18T14:29:32.863Z,8.50
2022-09-18T14:34:38.516Z,5.25
2022-09-18T14:39:41.251Z,7.57
2022-09-18T14:44:52.349Z,6.00
2022-09-18T14:49:55.007Z,10.23
2022-09-18T14:54:59.784Z,6.57
2022-09-18T15:00:08.044Z,6.72
2022-09-18T15:05:12.397Z,6.45
2022-09-18T15:10:17.530Z,6.28
2022-09-18T15:15:58.406Z,5.03
2022-09-18T15:21:03.781Z,6.68
2022-09-18T15:26:09.698Z,3.25
2022-09-18T15:31:14.573Z,5.07
2022-09-18T15:36:25.227Z,6.55
2022-09-18T15:41:35.889Z,3.90
2022-09-18T15:46:39.978Z,3.45
2022-09-18T15:51:42.686Z,3.90
2022-09-18T15:56:51.269Z,5.32
2022-09-18T16:01:55.833Z,4.43
2022-09-18T16:07:01.563Z,4.60
2022-09-18T16:12:27.870Z,3.20
2022-09-18T16:17:40.430Z,3.80
2022-09-18T16:22:43.115Z,6.30
2022-09-18T16:27:46.875Z,3.65
2022-09-18T16:32:51.014Z,5.65
2022-09-18T16:37:55.120Z,4.00
2022-09-18T16:42:58.415Z,3.60
2022-09-18T16:48:03.534Z,3.22
2022-09-18T16:53:08.216Z,2.35
2022-09-18T16:58:11.235Z,2.63
2022-09-18T17:03:15.577Z,2.25
2022-09-18T17:08:18.343Z,10.90
2022-09-18T17:13:21.097Z,3.35
2022-09-18T17:18:25.269Z,2.30
2022-09-18T17:23:30.087Z,4.05
2022-09-18T17:28:32.848Z,4.10
2022-09-18T17:33:36.889Z,3.35
2022-09-18T17:38:40.479Z,3.65
2022-09-18T17:43:43.567Z,2.22
2022-09-18T17:48:47.637Z,3.05
2022-09-18T17:53:50.525Z,3.85
2022-09-18T17:58:56.346Z,2.45
2022-09-18T18:04:01.051Z,5.47
2022-09-18T18:09:05.305Z,3.60
2022-09-18T18:14:08.311Z,4.07
2022-09-18T18:19:13.089Z,6.30
2022-09-18T18:24:18.928Z,10.90
2022-09-18T18:29:21.849Z,10.25
2022-09-18T18:34:26.711Z,14.60
2022-09-18T18:39:29.472Z,26.55
2022-09-18T18:44:32.182Z,34.67
2022-09-18T18:49:36.365Z,53.22
2022-09-18T18:54:39.506Z,65.97
2022-09-18T18:59:43.856Z,72.22
2022-09-18T19:04:49.767Z,76.47
2022-09-18T19:09:52.463Z,84.57
2022-09-18T19:14:55.226Z,88.93
2022-09-18T19:20:01.513Z,92.22
2022-09-18T19:25:06.356Z,93.53
2022-09-18T19:30:10.011Z,95.43
2022-09-18T19:35:14.068Z,93.60
2022-09-18T19:40:17.663Z,94.30
2022-09-18T19:45:24.402Z,92.72
2022-09-18T19:50:30.956Z,90.32
2022-09-18T19:55:33.622Z,73.05
2022-09-18T20:00:39.652Z,66.32
2022-09-18T20:05:44.251Z,62.08
2022-09-18T20:10:48.455Z,61.75
2022-09-18T20:15:59.818Z,62.47
2022-09-18T20:21:08.510Z,56.15
2022-09-18T20:26:12.337Z,53.05
2022-09-18T20:31:16.150Z,46.38
2022-09-18T20:36:20.243Z,40.65
2022-09-18T20:41:23.031Z,44.03
2022-09-18T20:46:30.402Z,37.03
2022-09-18T20:51:35.978Z,38.78
2022-09-18T20:56:41.928Z,31.65
2022-09-18T21:01:45.639Z,30.23
2022-09-18T21:06:55.947Z,32.03
2022-09-18T21:11:58.714Z,31.70
2022-09-18T21:17:01.464Z,27.65
2022-09-18T21:22:05.848Z,28.33
2022-09-18T21:27:09.759Z,26.30
2022-09-18T21:32:12.400Z,34.15
2022-09-18T21:37:17.149Z,24.90
2022-09-18T21:42:19.875Z,24.92
2022-09-18T21:47:22.550Z,26.02
2022-09-18T21:52:26.686Z,25.52
2022-09-18T21:57:29.479Z,20.65
2022-09-18T22:02:32.156Z,21.98
2022-09-18T22:07:37.075Z,24.90
2022-09-18T22:12:40.088Z,20.48
2022-09-18T22:17:42.730Z,22.52
2022-09-18T22:22:47.049Z,20.75
2022-09-18T22:27:49.757Z,16.08
2022-09-18T22:32:52.577Z,18.05
2022-09-18T22:37:57.014Z,15.60
2022-09-18T22:42:59.715Z,15.45
2022-09-18T22:48:02.640Z,17.10
2022-09-18T22:53:06.707Z,15.73
2022-09-18T22:58:09.513Z,16.10
2022-09-18T23:03:12.645Z,18.30
2022-09-18T23:08:16.738Z,14.18
2022-09-18T23:13:22.894Z,13.10
2022-09-18T23:18:25.627Z,16.45
2022-09-18T23:23:32.168Z,11.68
2022-09-18T23:28:36.406Z,12.52
2022-09-18T23:33:39.710Z,11.93
2022-09-18T23:38:44.251Z,11.43
2022-09-18T23:43:48.573Z,12.02
2022-09-18T23:48:54.933Z,10.77
2022-09-18T23:54:00.798Z,9.93
2022-09-18T23:59:06.150Z,7.55
